Time;durP1;ratioP1;P1;durP2;ratioP2;P2;SDS_P1;SDS_P2;PMS_P1;PMS_P2;Temp;Humidity;BMP_temperature;BMP_pressure;BME280_temperature;BME280_humidity;BME280_pressure;Samples;Min_cycle;Max_cycle;Signal;HPM_P1;HPM_P2
2021/04/19 00:00:08;;;;;;;;;;;;;;;7.15;66.09;101726.20;1744623;82;20292;-86
2021/04/19 00:02:37;;;;;;;;;;;;;;;7.15;66.16;101729.20;1744779;81;20243;-85
2021/04/19 00:05:07;;;;;;;;;;;;;;;7.14;66.25;101722.19;1744708;82;20327;-85
2021/04/19 00:07:34;;;;;;;;;;;;;;;7.11;66.33;101716.34;1743682;81;21903;-85
2021/04/19 00:10:01;;;;;;;;;;;;;;;7.11;66.39;101719.38;1744666;81;20700;-85
2021/04/19 00:12:28;;;;;;;;;;;;;;;7.09;66.43;101714.48;1744853;82;20646;-85
2021/04/19 00:14:55;;;;;;;;;;;;;;;7.08;66.48;101711.39;1744850;81;20376;-85
2021/04/19 00:17:22;;;;;;;;;;;;;;;7.05;66.51;101709.48;1744807;81;20201;-85
2021/04/19 00:19:49;;;;;;;;;;;;;;;7.05;66.59;101711.20;1744900;81;22916;-85
2021/04/19 00:22:15;;;;;;;;;;;;;;;7.01;66.65;101710.14;1744580;81;20303;-84
2021/04/19 00:24:42;;;;;;;;;;;;;;;6.98;66.72;101708.27;1744521;81;20247;-84
2021/04/19 00:27:09;;;;;;;;;;;;;;;6.96;66.78;101709.90;1744462;81;20568;-84
2021/04/19 00:29:36;;;;;;;;;;;;;;;6.93;66.83;101706.21;1744566;81;20326;-84
2021/04/19 00:32:05;;;;;;;;;;;;;;;6.90;66.88;101706.92;1744442;81;21999;-83
2021/04/19 00:34:32;;;;;;;;;;;;;;;6.88;66.96;101701.12;1741542;81;20292;-84
2021/04/19 00:36:58;;;;;;;;;;;;;;;6.85;66.99;101706.17;1741359;81;20256;-84
2021/04/19 00:39:25;;;;;;;;;;;;;;;6.82;67.05;101712.15;1741360;82;21183;-84
2021/04/19 00:41:52;;;;;;;;;;;;;;;6.77;67.12;101709.26;1741408;82;20516;-84
2021/04/19 00:44:19;;;;;;;;;;;;;;;6.74;67.15;101713.03;1741332;82;21974;-84
2021/04/19 00:46:47;;;;;;;;;;;;;;;6.70;67.23;101713.69;1721094;82;20259;-83
2021/04/19 00:49:17;;;;;;;;;;;;;;;6.68;67.31;101713.08;1741451;81;20240;-85
2021/04/19 00:51:44;;;;;;;;;;;;;;;6.62;67.35;101711.02;1741615;82;20385;-85
2021/04/19 00:54:11;;;;;;;;;;;;;;;6.58;67.41;101715.17;1741575;81;20220;-85
2021/04/19 00:56:38;;;;;;;;;;;;;;;6.54;67.49;101707.98;1722478;82;21887;-85
2021/04/19 00:59:05;;;;;;;;;;;;;;;6.50;67.53;101711.23;1722312;82;20251;-84
2021/04/19 01:01:33;;;;;;;;;;;;;;;6.48;67.65;101719.83;1741289;81;20260;-84
2021/04/19 01:04:00;;;;;;;;;;;;;;;6.42;67.73;101709.50;1741419;82;20532;-84
2021/04/19 01:06:27;;;;;;;;;;;;;;;6.40;67.82;101707.59;1741522;82;20500;-84
2021/04/19 01:08:54;;;;;;;;;;;;;;;6.36;67.88;101718.31;1741304;82;22028;-84
2021/04/19 01:11:21;;;;;;;;;;;;;;;6.32;67.96;101713.69;1741108;81;21148;-85
2021/04/19 01:13:48;;;;;;;;;;;;;;;6.28;68.03;101716.95;1740796;82;20280;-85
2021/04/19 01:16:16;;;;;;;;;;;;;;;6.25;68.11;101715.86;1741000;82;20362;-86
2021/04/19 01:18:44;;;;;;;;;;;;;;;6.21;68.18;101710.86;1741533;82;20528;-85
2021/04/19 01:21:11;;;;;;;;;;;;;;;6.19;68.26;101723.88;1741411;82;21989;-85
2021/04/19 01:23:37;;;;;;;;;;;;;;;6.15;68.37;101725.78;1741196;81;20271;-83
2021/04/19 01:26:05;;;;;;;;;;;;;;;6.13;68.48;101726.52;1741220;82;20312;-83
2021/04/19 01:28:32;;;;;;;;;;;;;;;6.09;68.54;101720.20;1741276;81;20517;-86
2021/04/19 01:30:59;;;;;;;;;;;;;;;6.07;68.57;101715.71;1741657;81;20291;-86
2021/04/19 01:33:26;;;;;;;;;;;;;;;6.04;68.67;101713.80;1741373;81;21886;-84
2021/04/19 01:35:53;;;;;;;;;;;;;;;6.00;68.74;101715.33;1741206;82;20272;-84
2021/04/19 01:38:22;;;;;;;;;;;;;;;5.99;68.83;101721.80;1741208;81;20601;-85
2021/04/19 01:40:50;;;;;;;;;;;;;;;5.96;68.90;101718.58;1741253;81;20601;-84
2021/04/19 01:43:17;;;;;;;;;;;;;;;5.94;68.98;101718.86;1741445;82;20764;-84
2021/04/19 01:45:44;;;;;;;;;;;;;;;5.94;69.12;101718.86;1741459;81;21947;-84
2021/04/19 01:48:11;;;;;;;;;;;;;;;5.94;69.15;101718.86;1741464;82;21180;-85
2021/04/19 01:50:38;;;;;;;;;;;;;;;5.95;69.22;101721.06;1741497;81;20315;-85
2021/04/19 01:53:05;;;;;;;;;;;;;;;5.95;69.29;101715.48;1741609;81;20538;-85
2021/04/19 01:55:33;;;;;;;;;;;;;;;5.96;69.35;101718.58;1741469;82;20526;-86
2021/04/19 01:58:06;;;;;;;;;;;;;;;5.97;69.37;101712.97;1741401;82;21880;-86
2021/04/19 02:00:33;;;;;;;;;;;;;;;5.98;69.41;101706.91;1741359;81;20638;-84
2021/04/19 02:03:16;;;;;;;;;;;;;;;5.99;69.44;101707.42;1741289;82;20300;-84
2021/04/19 02:06:07;;;;;;;;;;;;;;;6.00;69.44;101710.52;1687704;82;20319;-83
2021/04/19 02:08:40;;;;;;;;;;;;;;;5.98;69.45;101712.14;1741582;82;20694;-84
2021/04/19 02:11:30;;;;;;;;;;;;;;;5.97;69.49;101708.63;1741116;81;22789;-83
2021/04/19 02:14:28;;;;;;;;;;;;;;;5.96;69.52;101707.23;1741075;82;20298;-83
2021/04/19 02:17:04;;;;;;;;;;;;;;;5.95;69.54;101706.34;1741228;81;20280;-83
2021/04/19 02:20:05;;;;;;;;;;;;;;;5.93;69.57;101705.31;1741426;81;21079;-85
2021/04/19 02:22:37;;;;;;;;;;;;;;;5.93;69.63;101706.62;1648030;86;20309;-86
2021/04/19 02:25:22;;;;;;;;;;;;;;;5.90;69.70;101705.13;1648047;87;21904;-85
2021/04/19 02:27:53;;;;;;;;;;;;;;;5.88;69.74;101702.83;1648040;87;20414;-85
2021/04/19 02:30:20;;;;;;;;;;;;;;;5.87;69.79;101700.12;1647831;87;20258;-84
2021/04/19 02:32:50;;;;;;;;;;;;;;;5.87;69.86;101707.54;1647698;87;20320;-85
2021/04/19 02:35:21;;;;;;;;;;;;;;;5.85;69.89;101703.52;1647812;87;20757;-84
2021/04/19 02:38:01;;;;;;;;;;;;;;;5.89;69.95;101692.85;1891793;76;20202;-86
2021/04/19 02:40:28;;;;;;;;;;;;;;;5.83;69.98;101689.89;1862594;77;20237;-87
2021/04/19 02:42:56;;;;;;;;;;;;;;;5.82;70.03;101695.94;1862612;76;22843;-88
2021/04/19 02:45:23;;;;;;;;;;;;;;;5.79;70.10;101691.83;1862596;77;20301;-90
2021/04/19 02:47:50;;;;;;;;;;;;;;;5.78;70.20;101692.62;1862608;77;20260;-87
2021/04/19 02:50:18;;;;;;;;;;;;;;;5.76;70.26;101689.95;1862207;76;20494;-86
2021/04/19 02:52:45;;;;;;;;;;;;;;;5.74;70.32;101688.03;1862395;76;20249;-85
2021/04/19 02:55:13;;;;;;;;;;;;;;;5.71;70.37;101688.77;1862376;76;21868;-84
2021/04/19 02:57:46;;;;;;;;;;;;;;;5.67;70.45;101682.87;1862285;77;21162;-83
2021/04/19 03:00:26;;;;;;;;;;;;;;;5.68;70.55;101678.12;1891636;75;20775;-84
2021/04/19 03:02:53;;;;;;;;;;;;;;;5.62;70.64;101689.10;1861989;77;20253;-84
2021/04/19 03:05:21;;;;;;;;;;;;;;;5.61;70.72;101691.62;1862462;77;21882;-84
2021/04/19 03:07:51;;;;;;;;;;;;;;;5.59;70.86;101687.63;1862222;77;20577;-84
2021/04/19 03:10:19;;;;;;;;;;;;;;;5.59;70.88;101693.23;1862645;77;20240;-85
2021/04/19 03:12:48;;;;;;;;;;;;;;;5.59;70.92;101685.41;1862426;76;20608;-84
2021/04/19 03:15:17;;;;;;;;;;;;;;;5.58;70.96;101687.13;1862513;77;20249;-84
2021/04/19 03:17:44;;;;;;;;;;;;;;;5.58;70.99;101683.20;1862289;77;21883;-84
2021/04/19 03:20:17;;;;;;;;;;;;;;;5.58;71.07;101689.73;1856889;77;20240;-85
2021/04/19 03:22:47;;;;;;;;;;;;;;;5.58;71.11;101687.13;1862356;77;20482;-84
2021/04/19 03:25:14;;;;;;;;;;;;;;;5.58;71.18;101688.84;1862394;77;21451;-84
2021/04/19 03:27:42;;;;;;;;;;;;;;;5.59;71.21;101682.41;1862577;76;20257;-85
2021/04/19 03:30:11;;;;;;;;;;;;;;;5.61;71.25;101677.25;1862139;77;22032;-84
2021/04/19 03:32:47;;;;;;;;;;;;;;;5.61;71.22;101678.56;1861959;77;20384;-84
2021/04/19 03:35:16;;;;;;;;;;;;;;;5.59;71.26;101677.56;1861888;77;20280;-86
2021/04/19 03:37:44;;;;;;;;;;;;;;;5.60;71.35;101677.66;1862356;76;20315;-82
2021/04/19 03:40:18;;;;;;;;;;;;;;;5.52;71.39;101654.12;1862261;77;20245;-83
2021/04/19 03:42:46;;;;;;;;;;;;;;;5.63;71.45;101676.55;1862323;77;22970;-83
2021/04/19 03:45:13;;;;;;;;;;;;;;;5.64;71.50;101673.11;1862178;77;21141;-84
2021/04/19 03:47:40;;;;;;;;;;;;;;;5.70;71.57;101671.69;1862340;77;20514;-83
2021/04/19 03:50:23;;;;;;;;;;;;;;;5.74;71.59;101675.86;1829609;77;20359;-89
2021/04/19 03:52:50;;;;;;;;;;;;;;;5.80;71.66;101673.64;1862772;77;20335;-86
2021/04/19 03:55:17;;;;;;;;;;;;;;;5.88;71.66;101676.70;1862170;76;22842;-89
2021/04/19 03:57:46;;;;;;;;;;;;;;;5.99;71.72;101679.98;1828946;78;20588;-87
2021/04/19 04:00:16;;;;;;;;;;;;;;;6.21;71.96;101672.57;1801836;78;20960;-84
2021/04/19 04:02:44;;;;;;;;;;;;;;;6.59;72.00;101674.25;1795982;79;20362;-87
2021/04/19 04:05:12;;;;;;;;;;;;;;;7.02;71.80;101677.92;1796497;80;20248;-93
2021/04/19 04:07:40;;;;;;;;;;;;;;;7.47;71.53;101673.33;1795983;80;21880;-87
2021/04/19 04:10:07;;;;;;;;;;;;;;;7.95;71.15;101675.34;1795391;80;21209;-85
2021/04/19 04:12:36;;;;;;;;;;;;;;;8.42;70.58;101666.75;1795087;80;20267;-86
2021/04/19 04:15:03;;;;;;;;;;;;;;;8.95;70.28;101667.09;1795281;80;20244;-86
2021/04/19 04:17:30;;;;;;;;;;;;;;;9.47;69.47;101660.64;1796003;80;20215;-91
2021/04/19 04:20:09;;;;;;;;;;;;;;;9.95;68.88;101660.47;1796482;80;22159;-96
2021/04/19 04:22:37;;;;;;;;;;;;;;;10.50;68.24;101658.83;1795726;80;20247;-88
2021/04/19 04:25:06;;;;;;;;;;;;;;;11.01;67.60;101660.36;1795806;80;20290;-94
2021/04/19 04:27:34;;;;;;;;;;;;;;;11.58;67.05;101654.95;1767509;80;20240;-93
2021/04/19 04:30:02;;;;;;;;;;;;;;;12.19;66.33;101649.16;1766341;80;20251;-89
2021/04/19 04:32:31;;;;;;;;;;;;;;;12.79;65.47;101648.84;1795809;80;21876;-95
2021/04/19 04:34:59;;;;;;;;;;;;;;;13.32;64.61;101653.94;1766933;80;21066;-88
2021/04/19 04:37:25;;;;;;;;;;;;;;;13.84;63.67;101647.84;1795643;80;20720;-87
2021/04/19 04:40:00;;;;;;;;;;;;;;;14.39;62.98;101645.23;1796215;80;20927;-88
2021/04/19 04:42:26;;;;;;;;;;;;;;;14.94;62.13;101645.20;1794935;80;20231;-83
2021/04/19 04:44:53;;;;;;;;;;;;;;;15.52;61.36;101640.17;1796105;80;22938;-93
2021/04/19 04:47:33;;;;;;;;;;;;;;;16.04;60.36;101641.55;1796054;80;20257;-87
2021/04/19 04:50:17;;;;;;;;;;;;;;;16.57;59.60;101643.25;1795457;80;20224;-89
2021/04/19 04:52:55;;;;;;;;;;;;;;;17.14;58.74;101643.19;1795608;80;20524;-92
2021/04/19 04:55:22;;;;;;;;;;;;;;;17.60;57.68;101644.56;1795597;80;20295;-87
2021/04/19 04:57:49;;;;;;;;;;;;;;;18.00;56.79;101642.75;1795157;80;22849;-88
2021/04/19 05:00:17;;;;;;;;;;;;;;;18.26;55.77;101643.88;1818173;78;20224;-84
2021/04/19 05:02:45;;;;;;;;;;;;;;;18.55;55.20;101639.63;1828156;78;20255;-83
2021/04/19 05:05:13;;;;;;;;;;;;;;;18.97;54.55;101642.11;1827860;77;20552;-83
2021/04/19 05:07:40;;;;;;;;;;;;;;;19.41;53.97;101641.39;1827934;78;20254;-84
2021/04/19 05:10:07;;;;;;;;;;;;;;;19.93;53.60;101644.61;1827755;78;21965;-85
2021/04/19 05:12:34;;;;;;;;;;;;;;;20.36;52.61;101644.59;1822966;78;20232;-85
2021/04/19 05:15:02;;;;;;;;;;;;;;;20.75;52.10;101646.78;1827830;78;20244;-84
2021/04/19 05:17:29;;;;;;;;;;;;;;;21.05;51.26;101647.13;1827791;78;20497;-83
2021/04/19 05:19:55;;;;;;;;;;;;;;;21.39;50.66;101646.08;1827958;78;20223;-84
2021/04/19 05:22:22;;;;;;;;;;;;;;;21.46;49.85;101642.05;1850492;75;22822;-84
2021/04/19 05:24:49;;;;;;;;;;;;;;;21.43;48.76;101647.83;1893562;75;20389;-84
2021/04/19 05:27:16;;;;;;;;;;;;;;;20.63;48.66;101647.72;1890061;75;20298;-84
2021/04/19 05:29:43;;;;;;;;;;;;;;;19.67;47.68;101645.88;1893243;75;20302;-83
2021/04/19 05:32:10;;;;;;;;;;;;;;;18.55;48.11;101646.30;1893227;75;20620;-84
2021/04/19 05:34:37;;;;;;;;;;;;;;;17.61;48.64;101652.14;1893100;75;21987;-84
2021/04/19 05:37:04;;;;;;;;;;;;;;;17.02;49.54;101654.55;1893179;75;21103;-84
2021/04/19 05:39:33;;;;;;;;;;;;;;;16.49;49.91;101652.45;1893574;75;20694;-84
2021/04/19 05:42:02;;;;;;;;;;;;;;;16.09;50.62;101653.16;1893754;75;20251;-84
2021/04/19 05:44:30;;;;;;;;;;;;;;;15.68;50.90;101658.59;1893945;75;20497;-84
2021/04/19 05:46:56;;;;;;;;;;;;;;;15.32;51.33;101650.83;1894075;75;22042;-84
2021/04/19 05:49:23;;;;;;;;;;;;;;;15.06;52.01;101658.25;1893984;75;20297;-84
2021/04/19 05:51:50;;;;;;;;;;;;;;;14.84;52.43;101655.12;1894073;75;20244;-84
2021/04/19 05:54:17;;;;;;;;;;;;;;;14.69;52.53;101654.78;1894139;75;20366;-84
2021/04/19 05:57:08;;;;;;;;;;;;;;;14.40;52.88;101653.66;1893739;75;20798;-84
2021/04/19 05:59:57;;;;;;;;;;;;;;;14.03;53.01;101659.36;1893461;75;22764;-83
2021/04/19 06:02:36;;;;;;;;;;;;;;;13.76;53.64;101661.77;1893477;75;20290;-84
2021/04/19 06:05:05;;;;;;;;;;;;;;;13.59;54.00;101661.31;1889299;75;20302;-84
2021/04/19 06:07:47;;;;;;;;;;;;;;;13.36;53.90;101676.56;1893618;75;20215;-84
2021/04/19 06:10:17;;;;;;;;;;;;;;;13.08;54.29;101674.80;1891902;75;20290;-84
2021/04/19 06:12:49;;;;;;;;;;;;;;;12.91;54.72;101670.33;1893357;75;21868;-84
2021/04/19 06:15:16;;;;;;;;;;;;;;;12.79;54.98;101673.94;1893519;75;20258;-84
2021/04/19 06:17:45;;;;;;;;;;;;;;;12.62;55.25;101676.95;1893707;75;20231;-83
2021/04/19 06:20:14;;;;;;;;;;;;;;;12.44;55.49;101677.67;1893687;75;20255;-84
2021/04/19 06:22:41;;;;;;;;;;;;;;;12.25;55.78;101682.78;1894036;75;20326;-84
2021/04/19 06:25:11;;;;;;;;;;;;;;;12.07;56.00;101687.04;1893930;75;21868;-84
2021/04/19 06:27:38;;;;;;;;;;;;;;;12.02;56.74;101680.70;1894114;75;20293;-84
2021/04/19 06:30:16;;;;;;;;;;;;;;;11.92;56.59;101681.22;1893914;75;20270;-84
2021/04/19 06:32:44;;;;;;;;;;;;;;;11.78;56.97;101685.99;1882225;75;20278;-84
2021/04/19 06:35:13;;;;;;;;;;;;;;;11.70;57.03;101692.75;1894055;75;20242;-85
2021/04/19 06:37:40;;;;;;;;;;;;;;;11.58;57.31;101694.11;1893878;75;22922;-84
2021/04/19 06:40:08;;;;;;;;;;;;;;;11.54;57.61;101692.60;1893874;75;20294;-84
2021/04/19 06:42:35;;;;;;;;;;;;;;;11.54;57.88;101692.17;1893937;75;20294;-84
2021/04/19 06:45:03;;;;;;;;;;;;;;;11.58;58.06;101685.27;1894005;75;20286;-84
2021/04/19 06:47:34;;;;;;;;;;;;;;;11.63;57.91;101692.94;1894063;75;20199;-84
2021/04/19 06:49:59;;;;;;;;;;;;;;;11.63;57.94;101692.94;1890897;75;21868;-84
2021/04/19 06:52:28;;;;;;;;;;;;;;;11.67;58.14;101689.16;1893890;75;20238;-84
2021/04/19 06:54:54;;;;;;;;;;;;;;;11.67;57.97;101685.20;1893105;75;20254;-84
2021/04/19 06:57:21;;;;;;;;;;;;;;;11.61;57.95;101685.39;1893867;75;20547;-84
2021/04/19 06:59:48;;;;;;;;;;;;;;;11.61;58.23;101689.35;1893867;75;20250;-84
2021/04/19 07:02:18;;;;;;;;;;;;;;;11.62;58.06;101690.73;1893940;75;21873;-84
2021/04/19 07:04:45;;;;;;;;;;;;;;;11.57;58.09;101684.38;1894018;75;20252;-87
2021/04/19 07:07:13;;;;;;;;;;;;;;;11.58;58.31;101686.19;1894361;75;20246;-87
2021/04/19 07:09:40;;;;;;;;;;;;;;;11.62;58.42;101688.09;1891244;75;20246;-88
2021/04/19 07:12:09;;;;;;;;;;;;;;;11.66;58.40;101687.35;1894253;75;20275;-88
2021/04/19 07:14:38;;;;;;;;;;;;;;;11.70;58.36;101672.97;1893958;75;21892;-87
2021/04/19 07:17:05;;;;;;;;;;;;;;;11.75;58.43;101673.60;1894224;75;20560;-87
2021/04/19 07:19:35;;;;;;;;;;;;;;;11.85;58.39;101681.41;1894352;75;20215;-88
2021/04/19 07:22:03;;;;;;;;;;;;;;;11.85;58.24;101675.70;1894201;75;21487;-87
2021/04/19 07:24:30;;;;;;;;;;;;;;;11.87;58.25;101679.72;1894201;75;20227;-87
2021/04/19 07:26:57;;;;;;;;;;;;;;;11.90;58.11;101676.31;1894225;75;21861;-86
2021/04/19 07:29:25;;;;;;;;;;;;;;;11.91;58.00;101679.44;1894233;75;20311;-87
2021/04/19 07:31:53;;;;;;;;;;;;;;;11.95;58.22;101680.02;1894278;75;20251;-87
2021/04/19 07:34:30;;;;;;;;;;;;;;;12.00;58.25;101678.44;1894079;75;20294;-86
2021/04/19 07:36:58;;;;;;;;;;;;;;;12.07;58.37;101681.77;1894245;75;20547;-88
2021/04/19 07:39:34;;;;;;;;;;;;;;;12.12;58.04;101686.75;1894246;75;22784;-88
2021/04/19 07:42:02;;;;;;;;;;;;;;;12.12;57.78;101679.27;1894191;75;21367;-88
2021/04/19 07:44:39;;;;;;;;;;;;;;;12.12;57.80;101678.83;1894301;75;20215;-88
2021/04/19 07:47:26;;;;;;;;;;;;;;;12.11;57.80;101674.42;1894412;75;20421;-89
2021/04/19 07:50:14;;;;;;;;;;;;;;;12.12;57.67;101678.83;1894418;75;20243;-89
2021/04/19 07:52:56;;;;;;;;;;;;;;;12.17;57.75;101679.00;1894269;75;21979;-89
2021/04/19 07:55:34;;;;;;;;;;;;;;;12.20;57.85;101678.69;1894262;75;20567;-89
2021/04/19 07:58:01;;;;;;;;;;;;;;;12.24;57.76;101675.73;1894402;75;20263;-89
2021/04/19 08:00:35;;;;;;;;;;;;;;;12.30;57.86;101681.63;1894280;75;20227;-89
2021/04/19 08:03:13;;;;;;;;;;;;;;;12.32;57.71;101672.91;1894391;75;20536;-88
2021/04/19 08:05:42;;;;;;;;;;;;;;;12.33;57.65;101676.43;1894386;75;21873;-88
2021/04/19 08:08:09;;;;;;;;;;;;;;;12.32;57.65;101681.25;1862262;75;20239;-89
2021/04/19 08:10:38;;;;;;;;;;;;;;;12.31;57.36;101669.77;1894310;75;20503;-89
2021/04/19 08:13:13;;;;;;;;;;;;;;;12.29;57.47;101671.91;1894331;75;20251;-88
2021/04/19 08:15:42;;;;;;;;;;;;;;;12.30;57.29;101670.64;1893801;75;20281;-88
2021/04/19 08:18:13;;;;;;;;;;;;;;;12.31;57.63;101671.53;1894377;75;21868;-88
2021/04/19 08:20:53;;;;;;;;;;;;;;;12.35;57.58;101657.17;1894325;75;20262;-88
2021/04/19 08:23:21;;;;;;;;;;;;;;;12.41;57.53;101663.08;1894222;75;20677;-87
2021/04/19 08:25:50;;;;;;;;;;;;;;;12.48;57.34;101658.47;1894326;75;20308;-87
2021/04/19 08:28:22;;;;;;;;;;;;;;;12.53;57.19;101657.28;1894138;75;20915;-86
2021/04/19 08:30:50;;;;;;;;;;;;;;;12.58;57.29;101647.77;1894334;75;21870;-86
2021/04/19 08:33:17;;;;;;;;;;;;;;;12.66;57.17;101656.81;1894192;75;20532;-88
2021/04/19 08:35:45;;;;;;;;;;;;;;;12.72;57.04;101656.98;1894202;75;20899;-88
2021/04/19 08:38:13;;;;;;;;;;;;;;;12.78;57.16;101652.31;1894310;75;21182;-87
2021/04/19 08:40:40;;;;;;;;;;;;;;;12.87;56.89;101653.92;1894162;75;20242;-89
2021/04/19 08:43:24;;;;;;;;;;;;;;;12.98;56.85;101655.56;1894267;75;22840;-88
2021/04/19 08:45:51;;;;;;;;;;;;;;;13.06;56.51;101654.47;1894123;75;20553;-87
2021/04/19 08:48:18;;;;;;;;;;;;;;;13.11;56.23;101666.08;1894240;75;20230;-88
2021/04/19 08:50:46;;;;;;;;;;;;;;;13.12;56.21;101660.84;1894147;75;20263;-88
2021/04/19 08:53:14;;;;;;;;;;;;;;;13.18;56.20;101659.69;1894019;75;20243;-86
2021/04/19 08:55:42;;;;;;;;;;;;;;;13.23;56.10;101660.73;1893995;75;22838;-88
2021/04/19 08:58:10;;;;;;;;;;;;;;;13.29;55.55;101653.80;1893934;75;20230;-88
2021/04/19 09:00:38;;;;;;;;;;;;;;;13.30;54.99;101656.93;1857138;75;20534;-87
2021/04/19 09:03:08;;;;;;;;;;;;;;;13.29;55.22;101652.08;1849756;77;20540;-88
2021/04/19 09:05:36;;;;;;;;;;;;;;;13.40;55.28;101654.63;1844801;77;20357;-87
2021/04/19 09:08:09;;;;;;;;;;;;;;;13.49;54.71;101655.29;1846942;77;21260;-88
2021/04/19 09:10:55;;;;;;;;;;;;;;;13.53;54.51;101657.19;1842807;77;20284;-87
2021/04/19 09:13:39;;;;;;;;;;;;;;;13.54;54.42;101653.67;1848717;77;20221;-88
2021/04/19 09:16:15;;;;;;;;;;;;;;;13.59;54.30;101650.73;1850344;77;20598;-90
2021/04/19 09:18:46;;;;;;;;;;;;;;;13.68;54.12;101646.09;1850602;77;20313;-87
2021/04/19 09:21:36;;;;;;;;;;;;;;;13.74;53.99;101650.25;1844394;77;22916;-87
2021/04/19 09:24:07;;;;;;;;;;;;;;;13.81;53.67;101652.61;1849963;77;20391;-87
2021/04/19 09:26:45;;;;;;;;;;;;;;;13.87;53.37;101652.80;1843572;77;20297;-88
2021/04/19 09:29:28;;;;;;;;;;;;;;;13.94;53.25;101649.86;1844711;77;20286;-87
2021/04/19 09:32:08;;;;;;;;;;;;;;;13.97;53.16;101644.66;1831581;77;20369;-88
2021/04/19 09:34:40;;;;;;;;;;;;;;;14.02;52.73;101645.67;1842421;77;21876;-88
2021/04/19 09:37:09;;;;;;;;;;;;;;;14.04;52.21;101639.07;1844021;77;21076;-87
2021/04/19 09:39:46;;;;;;;;;;;;;;;14.06;52.14;101643.97;1842713;77;20258;-88
2021/04/19 09:42:13;;;;;;;;;;;;;;;14.12;51.65;101647.68;1851426;77;20471;-88
2021/04/19 09:44:54;;;;;;;;;;;;;;;14.14;51.54;101638.46;1846395;77;20652;-88
2021/04/19 09:47:46;;;;;;;;;;;;;;;14.19;51.44;101639.03;1845118;77;21887;-86
2021/04/19 09:50:14;;;;;;;;;;;;;;;14.17;51.54;101634.14;1847229;77;21225;-85
2021/04/19 09:52:42;;;;;;;;;;;;;;;14.29;51.69;101637.94;1846871;77;20519;-84
2021/04/19 09:55:09;;;;;;;;;;;;;;;14.38;51.31;101631.54;1850868;77;21258;-84
2021/04/19 09:57:38;;;;;;;;;;;;;;;14.44;51.22;101636.97;1843020;77;20242;-85
2021/04/19 10:00:07;;;;;;;;;;;;;;;14.43;50.66;101635.60;1848623;77;21873;-81
2021/04/19 10:02:35;;;;;;;;;;;;;;;14.44;50.49;101634.32;1854533;76;20670;-86
2021/04/19 10:05:05;;;;;;;;;;;;;;;14.42;50.39;101637.37;1856195;76;20253;-83
2021/04/19 10:07:32;;;;;;;;;;;;;;;14.43;50.39;101635.16;1856487;76;20310;-83
2021/04/19 10:10:01;;;;;;;;;;;;;;;14.47;50.40;101634.81;1857501;76;20240;-83
2021/04/19 10:12:29;;;;;;;;;;;;;;;14.50;49.86;101641.08;1855327;76;21123;-83
2021/04/19 10:14:56;;;;;;;;;;;;;;;14.50;49.69;101620.32;1855973;76;21065;-82
2021/04/19 10:17:26;;;;;;;;;;;;;;;14.51;49.54;101632.72;1848150;75;20300;-83
2021/04/19 10:19:51;;;;;;;;;;;;;;;14.50;49.59;101626.95;1847685;76;20589;-83
2021/04/19 10:22:18;;;;;;;;;;;;;;;14.48;49.54;101633.53;1856014;76;20220;-83
2021/04/19 10:24:51;;;;;;;;;;;;;;;14.49;49.68;101637.98;1854111;77;22897;-83
2021/04/19 10:27:29;;;;;;;;;;;;;;;14.49;48.65;101636.66;1858436;77;20409;-84
2021/04/19 10:30:09;;;;;;;;;;;;;;;14.41;49.40;101634.23;1849898;77;20288;-84
2021/04/19 10:32:36;;;;;;;;;;;;;;;14.35;48.87;101644.26;1855524;76;20385;-84
2021/04/19 10:35:06;;;;;;;;;;;;;;;14.29;48.99;101628.67;1846768;77;20505;-84
2021/04/19 10:37:35;;;;;;;;;;;;;;;14.27;48.58;101646.28;1853459;76;20288;-84
2021/04/19 10:40:06;;;;;;;;;;;;;;;14.20;48.80;101632.86;1849879;76;20533;-84
2021/04/19 10:42:34;;;;;;;;;;;;;;;14.20;48.86;101630.66;1855514;76;20263;-84
2021/04/19 10:45:09;;;;;;;;;;;;;;;14.20;48.61;101626.69;1853532;76;21072;-84
2021/04/19 10:47:36;;;;;;;;;;;;;;;14.20;48.52;101626.25;1861115;76;20284;-84
2021/04/19 10:50:03;;;;;;;;;;;;;;;14.19;48.55;101628.89;1855678;76;21888;-84
2021/04/19 10:52:36;;;;;;;;;;;;;;;14.15;48.78;101634.94;1855469;76;20296;-84
2021/04/19 10:55:14;;;;;;;;;;;;;;;14.13;48.85;101628.30;1847364;76;20750;-85
2021/04/19 10:57:41;;;;;;;;;;;;;;;14.07;48.93;101634.75;1819754;78;20227;-85
2021/04/19 11:00:10;;;;;;;;;;;;;;;14.02;48.80;101624.91;1815563;78;22910;-85
2021/04/19 11:02:37;;;;;;;;;;;;;;;13.95;49.02;101629.17;1817028;78;21005;-85
2021/04/19 11:05:05;;;;;;;;;;;;;;;13.94;49.25;101643.24;1821754;78;20606;-85
2021/04/19 11:07:34;;;;;;;;;;;;;;;13.87;49.11;101631.62;1812270;78;20257;-85
2021/04/19 11:10:21;;;;;;;;;;;;;;;13.72;49.09;101605.66;1815576;78;20528;-85
2021/04/19 11:12:57;;;;;;;;;;;;;;;13.76;49.14;101627.80;1811740;78;22129;-85
2021/04/19 11:15:30;;;;;;;;;;;;;;;13.74;49.65;101628.16;1811721;78;21140;-85
2021/04/19 11:17:57;;;;;;;;;;;;;;;13.74;49.67;101617.17;1815784;78;20331;-84
2021/04/19 11:20:26;;;;;;;;;;;;;;;13.78;49.37;101624.33;1812186;78;21008;-84
2021/04/19 11:22:55;;;;;;;;;;;;;;;13.78;49.52;101619.04;1819402;78;20291;-84
2021/04/19 11:25:29;;;;;;;;;;;;;;;13.84;49.66;101615.66;1813132;78;22076;-83
2021/04/19 11:28:16;;;;;;;;;;;;;;;13.94;49.57;101620.30;1812988;78;20258;-84
2021/04/19 11:30:43;;;;;;;;;;;;;;;14.02;49.21;101627.15;1815890;78;20679;-84
2021/04/19 11:33:12;;;;;;;;;;;;;;;14.00;48.97;101614.27;1810556;78;20290;-84
2021/04/19 11:35:41;;;;;;;;;;;;;;;14.00;48.59;101621.81;1816951;78;20288;-84
2021/04/19 11:38:10;;;;;;;;;;;;;;;14.01;48.14;101629.31;1816742;78;21885;-84
2021/04/19 11:40:40;;;;;;;;;;;;;;;14.02;48.37;101616.56;1812949;78;20614;-84
2021/04/19 11:43:27;;;;;;;;;;;;;;;14.08;47.94;101611.84;1818678;78;20324;-84
2021/04/19 11:46:07;;;;;;;;;;;;;;;14.08;47.63;101614.48;1818419;78;20579;-83
2021/04/19 11:48:35;;;;;;;;;;;;;;;14.10;47.71;101615.42;1817033;78;20334;-84
2021/04/19 11:51:06;;;;;;;;;;;;;;;14.12;47.52;101615.91;1818787;78;21642;-84
2021/04/19 11:53:34;;;;;;;;;;;;;;;14.14;46.98;101615.52;1753505;78;20327;-84
2021/04/19 11:56:02;;;;;;;;;;;;;;;14.12;47.15;101627.83;1812010;78;20259;-84
2021/04/19 11:58:29;;;;;;;;;;;;;;;14.13;46.99;101612.83;1820346;78;20250;-84
2021/04/19 12:00:56;;;;;;;;;;;;;;;14.16;46.70;101616.45;1821982;78;20326;-83
2021/04/19 12:03:24;;;;;;;;;;;;;;;14.15;45.85;101619.05;1819346;78;22059;-84
2021/04/19 12:05:51;;;;;;;;;;;;;;;14.12;46.20;101614.59;1811301;78;21602;-84
2021/04/19 12:08:18;;;;;;;;;;;;;;;14.11;46.37;101618.08;1814135;78;20335;-84
2021/04/19 12:10:44;;;;;;;;;;;;;;;14.12;46.53;101617.23;1811994;78;20346;-83
2021/04/19 12:13:15;;;;;;;;;;;;;;;14.15;46.27;101618.64;1819263;78;20545;-84
2021/04/19 12:15:42;;;;;;;;;;;;;;;14.12;46.37;101613.70;1813888;78;22761;-84
2021/04/19 12:18:09;;;;;;;;;;;;;;;14.10;46.74;101615.42;1816350;78;21031;-84
2021/04/19 12:20:36;;;;;;;;;;;;;;;14.09;46.77;101609.20;1817819;78;20303;-85
2021/04/19 12:23:03;;;;;;;;;;;;;;;14.04;46.46;101610.87;1816221;78;20783;-86
2021/04/19 12:25:30;;;;;;;;;;;;;;;13.99;46.77;101604.56;1813634;78;20335;-85
2021/04/19 12:27:59;;;;;;;;;;;;;;;13.93;46.63;101616.33;1815203;78;21938;-85
2021/04/19 12:30:29;;;;;;;;;;;;;;;13.81;46.57;101607.63;1815534;78;21047;-85
2021/04/19 12:32:56;;;;;;;;;;;;;;;13.78;46.67;101608.89;1818668;78;20295;-83
2021/04/19 12:35:23;;;;;;;;;;;;;;;13.76;46.83;101607.52;1813811;78;20299;-84
2021/04/19 12:37:50;;;;;;;;;;;;;;;13.72;46.53;101611.36;1812754;78;20272;-85
2021/04/19 12:40:18;;;;;;;;;;;;;;;13.59;46.73;101606.20;1815398;78;21951;-84
2021/04/19 12:42:44;;;;;;;;;;;;;;;13.53;46.78;101605.61;1821530;78;20326;-84
2021/04/19 12:45:12;;;;;;;;;;;;;;;13.46;46.49;101604.97;1816762;78;20549;-85
2021/04/19 12:47:39;;;;;;;;;;;;;;;13.45;46.68;101596.55;1815170;78;20860;-84
2021/04/19 12:50:07;;;;;;;;;;;;;;;13.46;46.54;101601.41;1814426;78;20302;-85
2021/04/19 12:52:33;;;;;;;;;;;;;;;13.46;46.88;101623.48;1816842;78;22121;-85
2021/04/19 12:55:00;;;;;;;;;;;;;;;13.38;46.36;101596.84;1822954;78;21215;-85